createdAt,value
2018-03-06T00:00:54.865Z,0.00
2018-03-06T00:01:54.861Z,0.00
2018-03-06T00:02:54.859Z,0.00
2018-03-06T00:03:54.851Z,0.00
2018-03-06T00:04:54.848Z,0.00
2018-03-06T00:05:54.842Z,0.00
2018-03-06T00:06:54.838Z,0.00
2018-03-06T00:07:54.830Z,0.00
2018-03-06T00:08:54.827Z,0.00
2018-03-06T00:09:54.820Z,0.00
2018-03-06T00:10:54.815Z,0.00
2018-03-06T00:11:54.815Z,0.00
2018-03-06T00:12:54.811Z,0.00
2018-03-06T00:13:54.807Z,0.00
2018-03-06T00:14:54.805Z,0.00
2018-03-06T00:15:54.797Z,0.00
2018-03-06T00:16:54.789Z,0.00
2018-03-06T00:17:54.791Z,0.00
2018-03-06T00:18:54.784Z,0.00
2018-03-06T00:19:54.779Z,0.00
2018-03-06T00:20:54.776Z,0.00
2018-03-06T00:21:54.771Z,0.00
2018-03-06T00:22:54.802Z,0.00
2018-03-06T00:23:54.757Z,0.00
2018-03-06T00:24:54.756Z,0.00
2018-03-06T00:25:54.748Z,0.00
2018-03-06T00:26:54.744Z,0.00
2018-03-06T00:27:54.743Z,0.00
2018-03-06T00:28:54.738Z,0.00
2018-03-06T00:29:54.734Z,0.00
2018-03-06T00:30:54.729Z,0.00
2018-03-06T00:31:54.720Z,0.00
2018-03-06T00:32:54.720Z,0.00
2018-03-06T00:33:54.715Z,0.00
2018-03-06T00:34:54.706Z,0.00
2018-03-06T00:35:54.709Z,0.00
2018-03-06T00:36:54.702Z,0.00
2018-03-06T00:37:54.700Z,0.00
2018-03-06T00:38:54.692Z,0.00
2018-03-06T00:39:54.687Z,0.00
2018-03-06T00:40:54.684Z,0.00
2018-03-06T00:41:54.679Z,0.00
2018-03-06T00:42:54.673Z,0.00
2018-03-06T00:43:54.665Z,0.00
2018-03-06T00:44:54.665Z,0.00
2018-03-06T00:45:54.660Z,0.00
2018-03-06T00:46:54.663Z,0.00
2018-03-06T00:47:54.885Z,0.00
2018-03-06T00:48:54.646Z,0.00
2018-03-06T00:49:54.641Z,0.00
2018-03-06T00:50:54.633Z,0.00
2018-03-06T00:51:54.632Z,0.00
2018-03-06T00:52:54.623Z,0.00
2018-03-06T00:53:54.623Z,0.00
2018-03-06T00:54:54.617Z,0.00
2018-03-06T00:55:54.611Z,0.00
2018-03-06T00:56:54.609Z,0.00
2018-03-06T00:57:54.609Z,0.00
2018-03-06T00:58:54.603Z,0.00
2018-03-06T00:59:54.594Z,0.00
2018-03-06T01:00:54.590Z,0.00
2018-03-06T01:01:54.585Z,0.00
2018-03-06T01:02:54.576Z,0.00
2018-03-06T01:03:54.575Z,0.00
2018-03-06T01:04:54.572Z,0.00
2018-03-06T01:05:54.567Z,0.00
2018-03-06T01:06:54.558Z,0.00
2018-03-06T01:07:54.552Z,0.00
2018-03-06T01:08:54.553Z,0.00
2018-03-06T01:09:54.548Z,0.00
2018-03-06T01:10:54.543Z,0.00
2018-03-06T01:11:54.534Z,0.00
2018-03-06T01:12:54.568Z,0.00
2018-03-06T01:13:54.529Z,0.00
2018-03-06T01:14:54.526Z,0.00
2018-03-06T01:15:54.520Z,0.00
2018-03-06T01:16:54.510Z,0.00
2018-03-06T01:17:54.511Z,0.00
2018-03-06T01:18:54.505Z,0.00
2018-03-06T01:19:54.496Z,0.00
2018-03-06T01:20:54.496Z,0.00
2018-03-06T01:21:54.492Z,0.00
2018-03-06T01:22:54.483Z,0.00
2018-03-06T01:23:54.482Z,0.00
2018-03-06T01:24:54.477Z,0.00
2018-03-06T01:25:54.472Z,0.00
2018-03-06T01:26:54.463Z,0.00
2018-03-06T01:27:54.464Z,0.00
2018-03-06T01:28:54.454Z,0.00
2018-03-06T01:29:54.451Z,0.00
2018-03-06T01:30:54.448Z,0.00
2018-03-06T01:31:54.444Z,0.00
2018-03-06T01:32:54.435Z,0.00
2018-03-06T01:33:54.432Z,0.00
2018-03-06T01:34:54.430Z,0.00
2018-03-06T01:35:54.424Z,0.00
2018-03-06T01:36:54.421Z,0.00
2018-03-06T01:37:54.448Z,0.00
2018-03-06T01:38:54.410Z,0.00
2018-03-06T01:39:54.407Z,0.00
2018-03-06T01:40:54.402Z,0.00
2018-03-06T01:41:54.383Z,0.00
2018-03-06T01:42:54.378Z,0.00
2018-03-06T01:43:54.387Z,0.00
2018-03-06T01:44:54.363Z,0.00
2018-03-06T01:45:54.378Z,0.00
2018-03-06T01:46:54.352Z,0.00
2018-03-06T01:47:54.370Z,0.00
2018-03-06T01:48:54.345Z,0.00
2018-03-06T01:49:54.362Z,0.00
2018-03-06T01:50:54.339Z,0.00
2018-03-06T01:51:54.434Z,0.00
2018-03-06T01:52:54.342Z,0.00
2018-03-06T01:53:54.338Z,0.00
2018-03-06T01:54:54.318Z,0.00
2018-03-06T01:55:54.314Z,0.00
2018-03-06T01:56:54.311Z,0.00
2018-03-06T01:57:54.323Z,0.00
2018-03-06T01:58:54.301Z,0.00
2018-03-06T01:59:54.312Z,0.00
2018-03-06T02:00:54.310Z,0.00
2018-03-06T02:01:54.287Z,0.00
2018-03-06T02:02:54.313Z,0.00
2018-03-06T02:03:54.276Z,0.00
2018-03-06T02:04:54.285Z,0.00
2018-03-06T02:05:54.272Z,0.00
2018-03-06T02:06:54.261Z,0.00
2018-03-06T02:07:54.271Z,0.00
2018-03-06T02:08:54.267Z,0.00
2018-03-06T02:09:54.248Z,0.00
2018-03-06T02:10:54.245Z,0.00
2018-03-06T02:11:54.237Z,0.00
2018-03-06T02:12:54.234Z,0.00
2018-03-06T02:13:54.231Z,0.00
2018-03-06T02:14:54.242Z,0.00
2018-03-06T02:15:54.238Z,0.00
2018-03-06T02:16:54.229Z,0.00
2018-03-06T02:17:54.230Z,0.00
2018-03-06T02:18:54.219Z,0.00
2018-03-06T02:19:54.218Z,0.00
2018-03-06T02:20:54.214Z,0.00
2018-03-06T02:21:54.207Z,0.00
2018-03-06T02:22:54.204Z,0.00
2018-03-06T02:23:54.197Z,0.00
2018-03-06T02:24:54.196Z,0.00
2018-03-06T02:25:54.191Z,0.00
2018-03-06T02:26:54.186Z,0.00
2018-03-06T02:27:54.419Z,0.00
2018-03-06T02:28:54.176Z,0.00
2018-03-06T02:29:54.168Z,0.00
2018-03-06T02:30:54.167Z,0.00
2018-03-06T02:31:54.163Z,0.00
2018-03-06T02:32:54.158Z,0.00
2018-03-06T02:33:54.153Z,0.00
2018-03-06T02:34:54.144Z,0.00
2018-03-06T02:35:54.143Z,0.00
2018-03-06T02:36:54.142Z,0.00
2018-03-06T02:37:54.136Z,0.00
2018-03-06T02:38:54.125Z,0.00
2018-03-06T02:39:54.121Z,0.00
2018-03-06T02:40:54.120Z,0.00
2018-03-06T02:41:54.112Z,0.00
2018-03-06T02:42:54.111Z,0.00
2018-03-06T02:43:54.107Z,0.00
2018-03-06T02:44:54.101Z,0.00
2018-03-06T02:45:54.092Z,0.00
2018-03-06T02:46:54.092Z,0.00
2018-03-06T02:47:54.090Z,0.00
2018-03-06T02:48:54.079Z,0.00
2018-03-06T02:49:54.077Z,0.00
2018-03-06T02:50:54.069Z,0.00
2018-03-06T02:51:54.069Z,0.00
2018-03-06T02:52:54.098Z,0.00
2018-03-06T02:53:54.054Z,0.00
2018-03-06T02:54:54.051Z,0.00
2018-03-06T02:55:54.049Z,0.00
2018-03-06T02:56:54.044Z,0.00
2018-03-06T02:57:54.039Z,0.00
2018-03-06T02:58:54.030Z,0.00
2018-03-06T02:59:54.030Z,0.00
2018-03-06T03:00:54.025Z,0.00
2018-03-06T03:01:54.022Z,0.00
2018-03-06T03:02:54.015Z,0.00
2018-03-06T03:03:54.010Z,0.00
2018-03-06T03:04:54.006Z,0.00
2018-03-06T03:05:54.005Z,0.00
2018-03-06T03:06:53.991Z,0.00
2018-03-06T03:07:53.990Z,0.00
2018-03-06T03:08:53.985Z,0.00
2018-03-06T03:09:53.976Z,0.00
2018-03-06T03:10:53.975Z,0.00
2018-03-06T03:11:53.966Z,0.00
2018-03-06T03:12:53.965Z,0.00
2018-03-06T03:13:53.961Z,0.00
2018-03-06T03:14:53.958Z,0.00
2018-03-06T03:15:53.947Z,0.00
2018-03-06T03:16:53.942Z,0.00
2018-03-06T03:17:53.976Z,0.00
2018-03-06T03:18:53.936Z,0.00
2018-03-06T03:19:53.932Z,0.00
2018-03-06T03:20:53.927Z,0.00
2018-03-06T03:21:53.922Z,0.00
2018-03-06T03:22:53.897Z,0.00
2018-03-06T03:23:53.912Z,0.00
2018-03-06T03:24:53.903Z,0.00
2018-03-06T03:25:53.885Z,0.00
2018-03-06T03:26:53.882Z,0.00
2018-03-06T03:27:53.892Z,0.00
2018-03-06T03:28:53.881Z,0.00
2018-03-06T03:29:53.881Z,0.00
2018-03-06T03:30:53.873Z,0.00
2018-03-06T03:31:53.866Z,0.00
2018-03-06T03:32:53.865Z,0.00
2018-03-06T03:33:53.841Z,0.00
2018-03-06T03:34:53.855Z,0.00
2018-03-06T03:35:53.834Z,0.00
2018-03-06T03:36:53.829Z,0.00
2018-03-06T03:37:53.824Z,0.00
2018-03-06T03:38:53.832Z,0.00
2018-03-06T03:39:53.816Z,0.00
2018-03-06T03:40:53.826Z,0.00
2018-03-06T03:41:53.806Z,0.00
2018-03-06T03:42:53.835Z,0.00
2018-03-06T03:43:53.795Z,0.00
2018-03-06T03:44:53.808Z,0.00
2018-03-06T03:45:53.786Z,0.00
2018-03-06T03:46:53.787Z,0.00
2018-03-06T03:47:53.775Z,0.00
2018-03-06T03:48:53.790Z,0.00
2018-03-06T03:49:53.770Z,0.00
2018-03-06T03:50:53.757Z,0.00
2018-03-06T03:51:53.772Z,0.00
2018-03-06T03:52:53.769Z,0.00
2018-03-06T03:53:53.762Z,0.00
2018-03-06T03:54:53.752Z,0.00
2018-03-06T03:55:53.751Z,0.00
2018-03-06T03:56:53.747Z,0.00
2018-03-06T03:57:53.726Z,0.00
2018-03-06T03:58:53.732Z,0.00
2018-03-06T03:59:53.717Z,0.00
2018-03-06T04:00:53.735Z,0.00
2018-03-06T04:01:53.703Z,0.00
2018-03-06T04:02:53.715Z,0.00
2018-03-06T04:03:53.693Z,0.00
2018-03-06T04:04:53.687Z,0.00
2018-03-06T04:05:53.687Z,0.00
2018-03-06T04:06:53.681Z,0.00
2018-03-06T04:07:53.711Z,0.00
2018-03-06T04:08:53.670Z,0.00
2018-03-06T04:09:53.687Z,0.00
2018-03-06T04:10:53.678Z,0.00
2018-03-06T04:11:53.659Z,0.00
2018-03-06T04:12:53.647Z,0.00
2018-03-06T04:13:53.646Z,0.00
2018-03-06T04:14:53.661Z,0.00
2018-03-06T04:15:53.675Z,0.00
2018-03-06T04:16:53.626Z,0.00
2018-03-06T04:17:53.643Z,0.00
2018-03-06T04:18:53.639Z,0.00
2018-03-06T04:19:53.632Z,0.00
2018-03-06T04:20:53.628Z,0.00
2018-03-06T04:21:53.705Z,0.00
2018-03-06T04:22:53.619Z,0.00
2018-03-06T04:23:53.592Z,0.00
2018-03-06T04:24:53.607Z,0.00
2018-03-06T04:25:53.584Z,0.00
2018-03-06T04:26:53.578Z,0.00
2018-03-06T04:27:53.592Z,0.00
2018-03-06T04:28:53.587Z,0.00
2018-03-06T04:29:53.578Z,0.00
2018-03-06T04:30:53.577Z,0.00
2018-03-06T04:31:53.572Z,0.00
2018-03-06T04:32:53.602Z,0.00
2018-03-06T04:33:53.557Z,0.00
2018-03-06T04:34:53.556Z,0.00
2018-03-06T04:35:53.551Z,0.00
2018-03-06T04:36:53.542Z,0.00
2018-03-06T04:37:53.537Z,0.00
2018-03-06T04:38:53.535Z,0.00
2018-03-06T04:39:53.531Z,0.00
2018-03-06T04:40:53.521Z,0.00
2018-03-06T04:41:53.517Z,0.00
2018-03-06T04:42:53.514Z,0.00
2018-03-06T04:43:53.510Z,0.00
2018-03-06T04:44:53.507Z,0.00
2018-03-06T04:45:53.500Z,0.00
2018-03-06T04:46:53.494Z,0.00
2018-03-06T04:47:53.485Z,0.00
2018-03-06T04:48:53.484Z,0.00
2018-03-06T04:49:53.479Z,0.00
2018-03-06T04:50:53.473Z,0.00
2018-03-06T04:51:53.569Z,0.00
2018-03-06T04:52:53.464Z,0.00
2018-03-06T04:53:53.459Z,0.00
2018-03-06T04:54:53.453Z,0.00
2018-03-06T04:55:53.449Z,0.00
2018-03-06T04:56:53.443Z,0.00
2018-03-06T04:57:53.469Z,0.00
2018-03-06T04:58:53.432Z,0.00
2018-03-06T04:59:53.429Z,0.00
2018-03-06T05:00:53.423Z,0.00
2018-03-06T05:01:53.418Z,0.00
2018-03-06T05:02:53.412Z,0.00
2018-03-06T05:03:53.407Z,0.00
2018-03-06T05:04:53.402Z,0.00
2018-03-06T05:05:53.399Z,0.00
2018-03-06T05:06:53.391Z,0.00
2018-03-06T05:07:53.386Z,0.00
2018-03-06T05:08:53.384Z,0.00
2018-03-06T05:09:53.385Z,0.00
2018-03-06T05:10:53.373Z,0.00
2018-03-06T05:11:53.366Z,0.00
2018-03-06T05:12:53.360Z,0.00
2018-03-06T05:13:53.352Z,0.00
2018-03-06T05:14:53.347Z,0.00
2018-03-06T05:15:53.345Z,0.00
2018-03-06T05:16:53.336Z,0.00
2018-03-06T05:17:53.331Z,0.00
2018-03-06T05:18:53.374Z,0.00
2018-03-06T05:19:53.331Z,0.00
2018-03-06T05:20:53.315Z,0.00
2018-03-06T05:21:53.312Z,0.00
2018-03-06T05:22:53.340Z,0.00
2018-03-06T05:23:53.300Z,0.00
2018-03-06T05:24:53.299Z,0.00
2018-03-06T05:25:53.294Z,0.00
2018-03-06T05:26:53.334Z,0.00
2018-03-06T05:27:53.283Z,0.00
2018-03-06T05:28:53.279Z,0.00
2018-03-06T05:29:53.270Z,0.00
2018-03-06T05:30:53.264Z,0.00
2018-03-06T05:31:53.258Z,0.00
2018-03-06T05:32:53.254Z,0.00
2018-03-06T05:33:53.253Z,0.00
2018-03-06T05:34:53.243Z,0.00
2018-03-06T05:35:53.238Z,0.00
2018-03-06T05:36:53.237Z,0.00
2018-03-06T05:37:53.228Z,0.00
2018-03-06T05:38:53.224Z,0.00
2018-03-06T05:39:53.217Z,0.00
2018-03-06T05:40:53.217Z,0.00
2018-03-06T05:41:53.211Z,0.00
2018-03-06T05:42:53.205Z,0.00
2018-03-06T05:43:53.179Z,0.00
2018-03-06T05:44:53.178Z,0.00
2018-03-06T05:45:53.176Z,0.00
2018-03-06T05:46:53.184Z,0.00
2018-03-06T05:47:53.199Z,0.00
2018-03-06T05:48:53.170Z,0.00
2018-03-06T05:49:53.169Z,0.00
2018-03-06T05:50:53.159Z,0.00
2018-03-06T05:51:53.240Z,0.00
2018-03-06T05:52:53.150Z,0.00
2018-03-06T05:53:53.148Z,0.00
2018-03-06T05:54:53.121Z,0.00
2018-03-06T05:55:53.115Z,0.00
2018-03-06T05:56:53.128Z,0.00
2018-03-06T05:57:53.110Z,0.00
2018-03-06T05:58:53.103Z,0.00
2018-03-06T05:59:53.095Z,0.00
2018-03-06T06:00:53.109Z,0.00
2018-03-06T06:01:53.108Z,0.00
2018-03-06T06:02:53.100Z,0.00
2018-03-06T06:03:53.088Z,0.00
2018-03-06T06:04:53.073Z,0.00
2018-03-06T06:05:53.059Z,0.00
2018-03-06T06:06:53.071Z,0.00
2018-03-06T06:07:53.054Z,0.00
2018-03-06T06:08:53.066Z,0.00
2018-03-06T06:09:53.046Z,0.00
2018-03-06T06:10:53.050Z,0.00
2018-03-06T06:11:53.032Z,0.00
2018-03-06T06:12:53.081Z,0.00
2018-03-06T06:13:53.040Z,0.00
2018-03-06T06:14:53.028Z,0.00
2018-03-06T06:15:53.029Z,0.00
2018-03-06T06:16:53.022Z,0.00
2018-03-06T06:17:53.013Z,0.00
2018-03-06T06:18:53.005Z,0.00
2018-03-06T06:19:53.001Z,0.00
2018-03-06T06:20:53.007Z,0.00
2018-03-06T06:21:52.996Z,0.00
2018-03-06T06:22:52.994Z,0.00
2018-03-06T06:23:52.987Z,0.00
2018-03-06T06:24:52.974Z,0.00
2018-03-06T06:25:52.975Z,0.00
2018-03-06T06:26:52.975Z,0.00
2018-03-06T06:27:52.964Z,0.00
2018-03-06T06:28:52.954Z,0.00
2018-03-06T06:29:52.951Z,0.00
2018-03-06T06:30:52.950Z,0.00
2018-03-06T06:31:52.943Z,0.00
2018-03-06T06:32:52.938Z,0.00
2018-03-06T06:33:52.937Z,0.00
2018-03-06T06:34:52.932Z,0.00
2018-03-06T06:35:52.927Z,0.00
2018-03-06T06:36:52.922Z,0.00
2018-03-06T06:37:52.945Z,0.00
2018-03-06T06:38:52.901Z,0.00
2018-03-06T06:39:53.009Z,0.00
2018-03-06T06:40:52.899Z,0.00
2018-03-06T06:41:52.876Z,0.00
2018-03-06T06:42:52.881Z,0.00
2018-03-06T06:43:52.880Z,0.00
2018-03-06T06:44:52.865Z,0.00
2018-03-06T06:45:52.850Z,0.00
2018-03-06T06:46:52.870Z,0.00
2018-03-06T06:47:52.838Z,0.00
2018-03-06T06:48:52.839Z,0.00
2018-03-06T06:49:52.845Z,0.00
2018-03-06T06:50:52.829Z,0.00
2018-03-06T06:51:52.917Z,0.00
2018-03-06T06:52:52.817Z,0.00
2018-03-06T06:53:52.807Z,0.00
2018-03-06T06:54:52.807Z,0.00
2018-03-06T06:55:52.797Z,0.00
2018-03-06T06:56:52.793Z,0.00
2018-03-06T06:57:52.786Z,0.00
2018-03-06T06:58:52.780Z,0.00
2018-03-06T06:59:52.776Z,0.00
2018-03-06T07:00:52.776Z,0.00
2018-03-06T07:01:52.766Z,0.00
2018-03-06T07:02:52.769Z,0.00
2018-03-06T07:03:52.860Z,0.00
2018-03-06T07:04:52.748Z,0.00
2018-03-06T07:05:52.750Z,0.00
2018-03-06T07:06:52.739Z,0.00
2018-03-06T07:07:52.743Z,0.00
2018-03-06T07:08:52.733Z,0.00
2018-03-06T07:09:52.733Z,0.00
2018-03-06T07:10:52.723Z,0.00
2018-03-06T07:11:52.718Z,0.00
2018-03-06T07:12:52.713Z,0.00
2018-03-06T07:13:52.712Z,0.00
2018-03-06T07:14:52.697Z,0.00
2018-03-06T07:15:52.690Z,0.00
2018-03-06T07:16:52.691Z,0.00
2018-03-06T07:17:52.689Z,0.00
2018-03-06T07:18:52.676Z,0.00
2018-03-06T07:19:52.676Z,0.00
2018-03-06T07:20:52.663Z,0.00
2018-03-06T07:21:52.659Z,0.00
2018-03-06T07:22:52.659Z,0.00
2018-03-06T07:23:52.659Z,0.00
2018-03-06T07:24:52.648Z,0.00
2018-03-06T07:25:52.648Z,0.00
2018-03-06T07:26:52.642Z,0.00
2018-03-06T07:27:52.727Z,0.00
2018-03-06T07:28:52.628Z,0.00
2018-03-06T07:29:52.623Z,0.00
2018-03-06T07:30:52.617Z,0.00
2018-03-06T07:31:52.623Z,0.00
2018-03-06T07:32:52.609Z,0.00
2018-03-06T07:33:52.601Z,0.00
2018-03-06T07:34:52.595Z,0.00
2018-03-06T07:35:52.585Z,0.00
2018-03-06T07:36:52.585Z,0.00
2018-03-06T07:37:52.579Z,0.00
2018-03-06T07:38:52.567Z,0.00
2018-03-06T07:39:52.568Z,0.00
2018-03-06T07:40:52.563Z,0.00
2018-03-06T07:41:52.558Z,0.00
2018-03-06T07:42:52.552Z,0.00
2018-03-06T07:43:52.546Z,0.00
2018-03-06T07:44:52.544Z,0.00
2018-03-06T07:45:52.537Z,0.00
2018-03-06T07:46:52.547Z,0.00
2018-03-06T07:47:52.529Z,0.00
2018-03-06T07:48:52.547Z,0.00
2018-03-06T07:49:52.535Z,0.00
2018-03-06T07:50:52.508Z,0.00
2018-03-06T07:51:52.502Z,0.00
2018-03-06T07:52:52.498Z,0.00
2018-03-06T07:53:52.499Z,0.00
2018-03-06T07:54:52.504Z,0.00
2018-03-06T07:55:52.503Z,0.00
2018-03-06T07:56:52.488Z,0.00
2018-03-06T07:57:52.474Z,0.00
2018-03-06T07:58:52.458Z,0.00
2018-03-06T07:59:52.477Z,0.00
2018-03-06T08:00:52.467Z,0.00
2018-03-06T08:01:52.454Z,0.00
2018-03-06T08:02:52.461Z,0.00
2018-03-06T08:03:52.432Z,0.00
2018-03-06T08:04:52.450Z,0.00
2018-03-06T08:05:52.431Z,0.00
2018-03-06T08:06:52.423Z,0.00
2018-03-06T08:07:52.438Z,0.00
2018-03-06T08:08:52.414Z,0.00
2018-03-06T08:09:52.400Z,0.00
2018-03-06T08:10:52.412Z,0.00
2018-03-06T08:11:52.390Z,0.00
2018-03-06T08:12:52.407Z,0.00
2018-03-06T08:13:52.385Z,0.00
2018-03-06T08:14:52.373Z,0.00
2018-03-06T08:15:52.385Z,0.00
2018-03-06T08:16:52.363Z,0.00
2018-03-06T08:17:52.393Z,0.00
2018-03-06T08:18:52.361Z,0.00
2018-03-06T08:19:52.373Z,0.00
2018-03-06T08:20:52.350Z,0.00
2018-03-06T08:21:52.346Z,0.00
2018-03-06T08:22:52.352Z,0.00
2018-03-06T08:23:52.332Z,0.00
2018-03-06T08:24:52.346Z,0.00
2018-03-06T08:25:52.337Z,0.00
2018-03-06T08:26:52.316Z,0.00
2018-03-06T08:27:52.311Z,0.00
2018-03-06T08:28:52.305Z,0.00
2018-03-06T08:29:52.302Z,0.00
2018-03-06T08:30:52.295Z,0.00
2018-03-06T08:31:52.303Z,0.00
2018-03-06T08:32:52.298Z,0.00
2018-03-06T08:33:52.399Z,0.00
2018-03-06T08:34:52.286Z,0.00
2018-03-06T08:35:52.286Z,0.00
2018-03-06T08:36:52.284Z,0.00
2018-03-06T08:37:52.271Z,0.00
2018-03-06T08:38:52.268Z,0.00
2018-03-06T08:39:52.259Z,0.00
2018-03-06T08:40:52.257Z,0.00
2018-03-06T08:41:52.248Z,0.00
2018-03-06T08:42:52.247Z,0.00
2018-03-06T08:43:52.241Z,0.00
2018-03-06T08:44:52.241Z,0.00
2018-03-06T08:45:52.233Z,0.00
2018-03-06T08:46:52.221Z,0.00
2018-03-06T08:47:52.215Z,0.00
2018-03-06T08:48:52.215Z,0.00
2018-03-06T08:49:52.209Z,0.00
2018-03-06T08:50:52.199Z,0.00
2018-03-06T08:51:52.197Z,0.00
2018-03-06T08:52:52.189Z,0.00
2018-03-06T08:53:52.183Z,0.00
2018-03-06T08:54:52.183Z,0.00
2018-03-06T08:55:52.176Z,0.00
2018-03-06T08:56:52.171Z,0.00
2018-03-06T08:57:52.162Z,0.00
2018-03-06T08:58:52.166Z,0.00
2018-03-06T08:59:52.154Z,0.00
2018-03-06T09:00:52.149Z,0.00
2018-03-06T09:01:52.144Z,0.00
2018-03-06T09:02:52.138Z,0.00
2018-03-06T09:03:52.132Z,0.00
2018-03-06T09:04:52.127Z,0.00
2018-03-06T09:05:52.123Z,0.00
2018-03-06T09:06:52.115Z,0.00
2018-03-06T09:07:52.105Z,0.00
2018-03-06T09:08:52.105Z,0.00
2018-03-06T09:09:52.093Z,0.00
2018-03-06T09:10:52.091Z,0.00
2018-03-06T09:11:52.084Z,0.00
2018-03-06T09:12:52.081Z,0.00
2018-03-06T09:13:52.077Z,0.00
2018-03-06T09:14:52.070Z,0.00
2018-03-06T09:15:52.062Z,0.00
2018-03-06T09:16:52.054Z,0.00
2018-03-06T09:17:52.054Z,0.00
2018-03-06T09:18:52.048Z,0.00
2018-03-06T09:19:52.041Z,0.00
2018-03-06T09:20:52.036Z,0.00
2018-03-06T09:21:52.032Z,0.00
2018-03-06T09:22:52.026Z,0.00
2018-03-06T09:23:52.019Z,0.00
2018-03-06T09:24:52.009Z,0.00
2018-03-06T09:25:52.004Z,0.00
2018-03-06T09:26:52.004Z,0.00
2018-03-06T09:27:51.997Z,0.00
2018-03-06T09:28:51.992Z,0.00
2018-03-06T09:29:51.986Z,0.00
2018-03-06T09:30:51.991Z,0.00
2018-03-06T09:31:51.971Z,0.00
2018-03-06T09:32:51.965Z,5.63
2018-03-06T09:33:51.964Z,5.63
2018-03-06T09:34:51.958Z,5.63
2018-03-06T09:35:51.948Z,5.63
2018-03-06T09:36:51.978Z,5.63
2018-03-06T09:37:51.939Z,5.63
2018-03-06T09:38:51.935Z,5.63
2018-03-06T09:39:51.932Z,5.63
2018-03-06T09:40:51.928Z,5.63
2018-03-06T09:41:51.926Z,5.63
2018-03-06T09:42:51.918Z,5.63
2018-03-06T09:43:51.911Z,5.63
2018-03-06T09:44:51.909Z,5.63
2018-03-06T09:45:51.900Z,5.63
2018-03-06T09:46:51.894Z,5.63
2018-03-06T09:47:51.889Z,5.63
2018-03-06T09:48:51.883Z,5.63
2018-03-06T09:49:51.875Z,5.63
2018-03-06T09:50:51.873Z,5.63
2018-03-06T09:51:51.968Z,5.63
2018-03-06T09:52:51.868Z,11.25
2018-03-06T09:53:51.853Z,11.25
2018-03-06T09:54:51.851Z,11.25
2018-03-06T09:55:51.846Z,11.25
2018-03-06T09:56:51.842Z,11.25
2018-03-06T09:57:51.837Z,11.25
2018-03-06T09:58:51.831Z,11.25
2018-03-06T09:59:51.826Z,11.25
2018-03-06T10:00:51.822Z,11.25
2018-03-06T10:01:51.815Z,11.25
2018-03-06T10:02:51.809Z,16.88
2018-03-06T10:03:51.808Z,11.25
2018-03-06T10:04:51.800Z,11.25
2018-03-06T10:05:51.795Z,11.25
2018-03-06T10:06:51.789Z,11.25
2018-03-06T10:07:51.784Z,11.25
2018-03-06T10:08:51.780Z,11.25
2018-03-06T10:09:51.774Z,11.25
2018-03-06T10:10:51.768Z,11.25
2018-03-06T10:11:51.763Z,11.25
2018-03-06T10:12:51.758Z,11.25
2018-03-06T10:13:51.754Z,16.88
2018-03-06T10:14:51.748Z,16.88
2018-03-06T10:15:51.743Z,16.88
2018-03-06T10:16:51.759Z,16.88
2018-03-06T10:17:51.735Z,16.88
2018-03-06T10:18:51.727Z,16.88
2018-03-06T10:19:51.723Z,16.88
2018-03-06T10:20:51.722Z,16.88
2018-03-06T10:21:51.714Z,16.88
2018-03-06T10:22:51.708Z,16.88
2018-03-06T10:23:51.750Z,16.88
2018-03-06T10:24:51.698Z,16.88
2018-03-06T10:25:51.694Z,16.88
2018-03-06T10:26:51.687Z,16.88
2018-03-06T10:27:51.682Z,16.88
2018-03-06T10:28:51.678Z,16.88
2018-03-06T10:29:51.673Z,16.88
2018-03-06T10:30:51.668Z,16.88
2018-03-06T10:31:51.664Z,16.88
2018-03-06T10:32:51.658Z,16.88
2018-03-06T10:33:51.650Z,11.25
2018-03-06T10:34:51.648Z,11.25
2018-03-06T10:35:51.647Z,11.25
2018-03-06T10:36:51.639Z,11.25
2018-03-06T10:37:51.634Z,11.25
2018-03-06T10:38:51.629Z,11.25
2018-03-06T10:39:51.620Z,11.25
2018-03-06T10:40:51.620Z,11.25
2018-03-06T10:41:51.615Z,11.25
2018-03-06T10:42:51.612Z,11.25
2018-03-06T10:43:51.628Z,11.25
2018-03-06T10:44:51.601Z,16.88
2018-03-06T10:45:51.591Z,16.88
2018-03-06T10:46:51.590Z,16.88
2018-03-06T10:47:51.585Z,16.88
2018-03-06T10:48:51.567Z,16.88
2018-03-06T10:49:51.559Z,22.50
2018-03-06T10:50:51.553Z,22.50
2018-03-06T10:51:51.566Z,22.50
2018-03-06T10:52:51.542Z,22.50
2018-03-06T10:53:51.538Z,28.13
2018-03-06T10:54:51.554Z,22.50
2018-03-06T10:55:51.546Z,28.13
2018-03-06T10:56:51.538Z,28.13
2018-03-06T10:57:51.521Z,28.13
2018-03-06T10:58:51.532Z,28.13
2018-03-06T10:59:51.527Z,28.13
2018-03-06T11:00:51.519Z,28.13
2018-03-06T11:01:51.502Z,22.50
2018-03-06T11:02:51.494Z,22.50
2018-03-06T11:03:51.489Z,22.50
2018-03-06T11:04:51.490Z,22.50
2018-03-06T11:05:51.496Z,22.50
2018-03-06T11:06:51.480Z,22.50
2018-03-06T11:07:51.490Z,22.50
2018-03-06T11:08:51.485Z,28.13
2018-03-06T11:09:51.463Z,22.50
2018-03-06T11:10:51.466Z,22.50
2018-03-06T11:11:51.455Z,22.50
2018-03-06T11:12:51.453Z,22.50
2018-03-06T11:13:51.446Z,16.88
2018-03-06T11:14:51.446Z,16.88
2018-03-06T11:15:51.437Z,16.88
2018-03-06T11:16:51.436Z,16.88
2018-03-06T11:17:51.432Z,16.88
2018-03-06T11:18:51.428Z,11.25
2018-03-06T11:19:51.438Z,11.25
2018-03-06T11:20:51.438Z,16.88
2018-03-06T11:21:51.530Z,16.88
2018-03-06T11:22:51.425Z,16.88
2018-03-06T11:23:51.425Z,16.88
2018-03-06T11:24:51.425Z,16.88
2018-03-06T11:25:51.417Z,16.88
2018-03-06T11:26:51.412Z,16.88
2018-03-06T11:27:51.408Z,16.88
2018-03-06T11:28:51.404Z,16.88
2018-03-06T11:29:51.406Z,16.88
2018-03-06T11:30:51.395Z,16.88
2018-03-06T11:31:51.404Z,16.88
2018-03-06T11:32:51.387Z,16.88
2018-03-06T11:33:51.383Z,16.88
2018-03-06T11:34:51.378Z,16.88
2018-03-06T11:35:51.377Z,16.88
2018-03-06T11:36:51.370Z,16.88
2018-03-06T11:37:51.365Z,16.88
2018-03-06T11:38:51.355Z,16.88
2018-03-06T11:39:51.353Z,16.88
2018-03-06T11:40:51.347Z,16.88
2018-03-06T11:41:51.347Z,16.88
2018-03-06T11:42:51.342Z,16.88
2018-03-06T11:43:51.334Z,16.88
2018-03-06T11:44:51.332Z,16.88
2018-03-06T11:45:51.329Z,16.88
2018-03-06T11:46:51.322Z,16.88
2018-03-06T11:47:51.314Z,22.50
2018-03-06T11:48:51.316Z,22.50
2018-03-06T11:49:51.353Z,22.50
2018-03-06T11:50:51.300Z,22.50
2018-03-06T11:51:51.301Z,22.50
2018-03-06T11:52:51.302Z,22.50
2018-03-06T11:53:51.289Z,22.50
2018-03-06T11:54:51.282Z,22.50
2018-03-06T11:55:51.278Z,16.88
2018-03-06T11:56:51.278Z,16.88
2018-03-06T11:57:51.275Z,16.88
2018-03-06T11:58:51.269Z,16.88
2018-03-06T11:59:51.266Z,22.50
2018-03-06T12:00:51.419Z,22.50
2018-03-06T12:01:51.258Z,22.50
2018-03-06T12:02:51.254Z,22.50
2018-03-06T12:03:51.250Z,22.50
2018-03-06T12:04:51.246Z,22.50
2018-03-06T12:05:51.239Z,22.50
2018-03-06T12:06:51.239Z,22.50
2018-03-06T12:07:51.234Z,22.50
2018-03-06T12:08:51.231Z,22.50
2018-03-06T12:09:51.227Z,22.50
2018-03-06T12:10:51.222Z,22.50
2018-03-06T12:11:51.219Z,22.50
2018-03-06T12:12:51.211Z,22.50
2018-03-06T12:13:51.211Z,22.50
2018-03-06T12:14:51.208Z,22.50
2018-03-06T12:15:51.203Z,22.50
2018-03-06T12:16:51.198Z,22.50
2018-03-06T12:17:51.197Z,22.50
2018-03-06T12:18:51.195Z,22.50
2018-03-06T12:19:51.188Z,22.50
2018-03-06T12:20:51.187Z,28.13
2018-03-06T12:21:51.182Z,28.13
2018-03-06T12:22:51.180Z,22.50
2018-03-06T12:23:51.171Z,28.13
2018-03-06T12:24:51.171Z,28.13
2018-03-06T12:25:51.167Z,33.75
2018-03-06T12:26:51.163Z,39.38
2018-03-06T12:27:51.156Z,39.38
2018-03-06T12:28:51.153Z,39.38
2018-03-06T12:29:51.155Z,45.00
2018-03-06T12:30:51.152Z,39.38
2018-03-06T12:31:51.150Z,39.38
2018-03-06T12:32:51.142Z,45.00
2018-03-06T12:33:51.184Z,56.25
2018-03-06T12:34:51.136Z,50.63
2018-03-06T12:35:51.140Z,56.25
2018-03-06T12:36:51.134Z,56.25
2018-03-06T12:37:51.130Z,56.25
2018-03-06T12:38:51.129Z,56.25
2018-03-06T12:39:51.126Z,56.25
2018-03-06T12:40:51.120Z,56.25
2018-03-06T12:41:51.117Z,56.25
2018-03-06T12:42:51.128Z,56.25
2018-03-06T12:43:51.117Z,56.25
2018-03-06T12:44:51.112Z,56.25
2018-03-06T12:45:51.114Z,56.25
2018-03-06T12:46:51.110Z,78.75
2018-03-06T12:47:51.111Z,56.25
2018-03-06T12:48:51.108Z,67.50
2018-03-06T12:49:51.106Z,73.13
2018-03-06T12:50:51.106Z,67.50
2018-03-06T12:51:51.104Z,67.50
2018-03-06T12:52:51.100Z,50.63
2018-03-06T12:53:51.097Z,45.00
2018-03-06T12:54:51.145Z,50.63
2018-03-06T12:55:51.095Z,56.25
2018-03-06T12:56:51.092Z,67.50
2018-03-06T12:57:51.092Z,61.88
2018-03-06T12:58:51.089Z,50.63
2018-03-06T12:59:51.088Z,56.25
2018-03-06T13:00:51.089Z,56.25
2018-03-06T13:01:51.089Z,50.63
2018-03-06T13:02:51.082Z,56.25
2018-03-06T13:03:51.081Z,61.88
2018-03-06T13:04:51.082Z,56.25
2018-03-06T13:05:51.082Z,61.88
2018-03-06T13:06:51.079Z,67.50
2018-03-06T13:07:51.080Z,73.13
2018-03-06T13:08:51.124Z,84.38
2018-03-06T13:09:51.083Z,61.88
2018-03-06T13:10:51.078Z,61.88
2018-03-06T13:11:51.078Z,67.50